Aviation Digital Data Service (ADDS)

Output produced by METARs form (0738 UTC 20 October 2018)
found at http://www.aviationweather.gov/metar/data/
 
FBFT 200700Z 08009KT 040V100 CAVOK 27/12 Q1020
TAF FBFT 200600Z 2009/2018 08016KT CAVOK
       
TAF FBFT 200600Z 2009/2018 08016KT CAVOK
       
FBKE 200700Z 07007KT 030V110 CAVOK 30/15 Q1019
TAF FBKE 200600Z 2009/2018 05009KT CAVOK
       
FBMN 200700Z 06013KT CAVOK 31/12 Q1017
TAF FBMN 200600Z 2009/2018 07014KT CAVOK
       
FBSP 200700Z 12007KT CAVOK 26/16 Q1021
TAF FBSP 200600Z 2009/2018 08017KT CAVOK
       
FBSK 200700Z 08007KT CAVOK 25/10 Q1020 NOSIG
TAF FBSK 200300Z 2006/2112 05010KT CAVOK 
     BECMG 2110/2112 FEW040CB
       
FBFT 200700Z 08009KT 040V100 CAVOK 27/12 Q1020
TAF FBFT 200600Z 2009/2018 08016KT CAVOK
       
TAF FBFT 200600Z 2009/2018 08016KT CAVOK